sensor_id;sensor_type;location;lat;lon;timestamp;P1;durP1;ratioP1;P2;durP2;ratioP2
54823;SDS011;40724;53.196;5.980;2022-09-01T00:01:28;3.10;;;1.48;;
54823;SDS011;40724;53.196;5.980;2022-09-01T00:03:55;3.00;;;1.52;;
54823;SDS011;40724;53.196;5.980;2022-09-01T00:06:23;3.78;;;2.22;;
54823;SDS011;40724;53.196;5.980;2022-09-01T00:08:54;3.60;;;1.58;;
54823;SDS011;40724;53.196;5.980;2022-09-01T00:11:21;7.30;;;2.42;;
54823;SDS011;40724;53.196;5.980;2022-09-01T00:13:48;2.90;;;1.58;;
54823;SDS011;40724;53.196;5.980;2022-09-01T00:16:14;3.35;;;1.73;;
54823;SDS011;40724;53.196;5.980;2022-09-01T00:18:42;3.47;;;1.67;;
54823;SDS011;40724;53.196;5.980;2022-09-01T00:21:11;5.60;;;1.67;;
54823;SDS011;40724;53.196;5.980;2022-09-01T00:23:38;4.20;;;1.67;;
54823;SDS011;40724;53.196;5.980;2022-09-01T00:26:04;5.03;;;1.50;;
54823;SDS011;40724;53.196;5.980;2022-09-01T00:28:33;5.45;;;1.83;;
54823;SDS011;40724;53.196;5.980;2022-09-01T00:31:00;2.78;;;1.65;;
54823;SDS011;40724;53.196;5.980;2022-09-01T00:33:27;1.80;;;1.35;;
54823;SDS011;40724;53.196;5.980;2022-09-01T00:35:53;3.25;;;1.48;;
54823;SDS011;40724;53.196;5.980;2022-09-01T00:38:19;2.53;;;1.20;;
54823;SDS011;40724;53.196;5.980;2022-09-01T00:40:45;5.18;;;1.70;;
54823;SDS011;40724;53.196;5.980;2022-09-01T00:45:56;2.85;;;1.50;;
54823;SDS011;40724;53.196;5.980;2022-09-01T00:48:22;3.00;;;1.70;;
54823;SDS011;40724;53.196;5.980;2022-09-01T00:50:49;3.22;;;1.60;;
54823;SDS011;40724;53.196;5.980;2022-09-01T00:53:15;4.35;;;1.55;;
54823;SDS011;40724;53.196;5.980;2022-09-01T00:55:42;4.55;;;2.17;;
54823;SDS011;40724;53.196;5.980;2022-09-01T00:58:08;2.20;;;1.40;;
54823;SDS011;40724;53.196;5.980;2022-09-01T01:00:35;2.08;;;1.20;;
54823;SDS011;40724;53.196;5.980;2022-09-01T01:03:08;4.15;;;1.50;;
54823;SDS011;40724;53.196;5.980;2022-09-01T01:05:38;3.10;;;1.40;;
54823;SDS011;40724;53.196;5.980;2022-09-01T01:08:06;2.20;;;1.42;;
54823;SDS011;40724;53.196;5.980;2022-09-01T01:10:33;3.20;;;1.60;;
54823;SDS011;40724;53.196;5.980;2022-09-01T01:13:01;2.10;;;1.40;;
54823;SDS011;40724;53.196;5.980;2022-09-01T01:15:28;2.38;;;1.48;;
54823;SDS011;40724;53.196;5.980;2022-09-01T01:17:54;3.92;;;1.35;;
54823;SDS011;40724;53.196;5.980;2022-09-01T01:20:22;4.57;;;1.73;;
54823;SDS011;40724;53.196;5.980;2022-09-01T01:23:13;2.42;;;1.50;;
54823;SDS011;40724;53.196;5.980;2022-09-01T01:25:45;3.00;;;1.38;;
54823;SDS011;40724;53.196;5.980;2022-09-01T01:28:18;2.20;;;1.38;;
54823;SDS011;40724;53.196;5.980;2022-09-01T01:30:48;2.35;;;1.60;;
54823;SDS011;40724;53.196;5.980;2022-09-01T01:33:19;3.63;;;1.33;;
54823;SDS011;40724;53.196;5.980;2022-09-01T01:35:46;3.22;;;1.67;;
54823;SDS011;40724;53.196;5.980;2022-09-01T01:38:13;2.53;;;1.60;;
54823;SDS011;40724;53.196;5.980;2022-09-01T01:40:40;1.88;;;1.40;;
54823;SDS011;40724;53.196;5.980;2022-09-01T01:43:06;2.72;;;1.70;;
54823;SDS011;40724;53.196;5.980;2022-09-01T01:45:33;2.90;;;1.77;;
54823;SDS011;40724;53.196;5.980;2022-09-01T01:47:59;2.42;;;1.60;;
54823;SDS011;40724;53.196;5.980;2022-09-01T01:50:33;1.40;;;1.25;;
54823;SDS011;40724;53.196;5.980;2022-09-01T01:53:00;3.08;;;1.75;;
54823;SDS011;40724;53.196;5.980;2022-09-01T01:55:27;1.67;;;1.23;;
54823;SDS011;40724;53.196;5.980;2022-09-01T01:57:55;2.28;;;1.50;;
54823;SDS011;40724;53.196;5.980;2022-09-01T02:00:24;2.53;;;1.98;;
54823;SDS011;40724;53.196;5.980;2022-09-01T02:02:51;3.35;;;1.70;;
54823;SDS011;40724;53.196;5.980;2022-09-01T02:05:20;2.25;;;1.52;;
54823;SDS011;40724;53.196;5.980;2022-09-01T02:07:56;2.33;;;1.50;;
54823;SDS011;40724;53.196;5.980;2022-09-01T02:10:28;4.07;;;1.33;;
54823;SDS011;40724;53.196;5.980;2022-09-01T02:12:56;2.15;;;1.52;;
54823;SDS011;40724;53.196;5.980;2022-09-01T02:15:28;3.58;;;1.75;;
54823;SDS011;40724;53.196;5.980;2022-09-01T02:17:56;2.70;;;1.70;;
54823;SDS011;40724;53.196;5.980;2022-09-01T02:20:24;4.22;;;2.17;;
54823;SDS011;40724;53.196;5.980;2022-09-01T02:22:53;2.50;;;1.55;;
54823;SDS011;40724;53.196;5.980;2022-09-01T02:25:20;3.28;;;2.10;;
54823;SDS011;40724;53.196;5.980;2022-09-01T02:27:47;2.20;;;1.73;;
54823;SDS011;40724;53.196;5.980;2022-09-01T02:30:17;3.10;;;1.73;;
54823;SDS011;40724;53.196;5.980;2022-09-01T02:32:44;1.80;;;1.30;;
54823;SDS011;40724;53.196;5.980;2022-09-01T02:35:10;1.65;;;1.38;;
54823;SDS011;40724;53.196;5.980;2022-09-01T02:37:38;2.05;;;1.38;;
54823;SDS011;40724;53.196;5.980;2022-09-01T02:40:08;2.60;;;1.45;;
54823;SDS011;40724;53.196;5.980;2022-09-01T02:42:35;1.92;;;1.40;;
54823;SDS011;40724;53.196;5.980;2022-09-01T02:45:05;1.83;;;1.30;;
54823;SDS011;40724;53.196;5.980;2022-09-01T02:47:36;1.63;;;1.42;;
54823;SDS011;40724;53.196;5.980;2022-09-01T02:50:06;2.65;;;1.50;;
54823;SDS011;40724;53.196;5.980;2022-09-01T02:52:38;2.13;;;1.40;;
54823;SDS011;40724;53.196;5.980;2022-09-01T02:55:05;2.95;;;1.40;;
54823;SDS011;40724;53.196;5.980;2022-09-01T02:57:31;5.63;;;1.50;;
54823;SDS011;40724;53.196;5.980;2022-09-01T02:59:58;2.20;;;1.58;;
54823;SDS011;40724;53.196;5.980;2022-09-01T03:02:25;3.55;;;1.88;;
54823;SDS011;40724;53.196;5.980;2022-09-01T03:04:53;2.95;;;1.58;;
54823;SDS011;40724;53.196;5.980;2022-09-01T03:07:20;2.88;;;1.60;;
54823;SDS011;40724;53.196;5.980;2022-09-01T03:09:48;3.10;;;1.73;;
54823;SDS011;40724;53.196;5.980;2022-09-01T03:12:14;3.45;;;1.52;;
54823;SDS011;40724;53.196;5.980;2022-09-01T03:14:40;1.85;;;1.40;;
54823;SDS011;40724;53.196;5.980;2022-09-01T03:17:07;2.33;;;1.55;;
54823;SDS011;40724;53.196;5.980;2022-09-01T03:19:33;2.55;;;1.42;;
54823;SDS011;40724;53.196;5.980;2022-09-01T03:22:04;2.30;;;1.70;;
54823;SDS011;40724;53.196;5.980;2022-09-01T03:24:30;2.55;;;1.70;;
54823;SDS011;40724;53.196;5.980;2022-09-01T03:26:56;3.85;;;2.17;;
54823;SDS011;40724;53.196;5.980;2022-09-01T03:29:22;2.50;;;1.55;;
54823;SDS011;40724;53.196;5.980;2022-09-01T03:31:49;2.40;;;1.83;;
54823;SDS011;40724;53.196;5.980;2022-09-01T03:34:15;2.47;;;2.13;;
54823;SDS011;40724;53.196;5.980;2022-09-01T03:36:44;3.00;;;2.03;;
54823;SDS011;40724;53.196;5.980;2022-09-01T03:39:14;2.42;;;1.75;;
54823;SDS011;40724;53.196;5.980;2022-09-01T03:41:41;2.30;;;1.30;;
54823;SDS011;40724;53.196;5.980;2022-09-01T03:44:07;3.63;;;2.15;;
54823;SDS011;40724;53.196;5.980;2022-09-01T03:46:38;2.63;;;2.08;;
54823;SDS011;40724;53.196;5.980;2022-09-01T03:49:04;5.10;;;2.17;;
54823;SDS011;40724;53.196;5.980;2022-09-01T03:51:32;2.95;;;1.92;;
54823;SDS011;40724;53.196;5.980;2022-09-01T03:53:58;4.85;;;1.40;;
54823;SDS011;40724;53.196;5.980;2022-09-01T03:56:28;2.30;;;1.27;;
54823;SDS011;40724;53.196;5.980;2022-09-01T03:58:55;2.00;;;1.65;;
54823;SDS011;40724;53.196;5.980;2022-09-01T04:01:21;6.00;;;1.85;;
54823;SDS011;40724;53.196;5.980;2022-09-01T04:03:47;1.83;;;1.27;;
54823;SDS011;40724;53.196;5.980;2022-09-01T04:06:17;2.28;;;2.05;;
54823;SDS011;40724;53.196;5.980;2022-09-01T04:08:45;4.25;;;1.80;;
54823;SDS011;40724;53.196;5.980;2022-09-01T04:11:12;2.75;;;1.92;;
54823;SDS011;40724;53.196;5.980;2022-09-01T04:13:41;4.90;;;1.63;;
54823;SDS011;40724;53.196;5.980;2022-09-01T04:16:15;3.50;;;1.75;;
54823;SDS011;40724;53.196;5.980;2022-09-01T04:19:01;4.13;;;1.70;;
54823;SDS011;40724;53.196;5.980;2022-09-01T04:21:40;2.28;;;1.63;;
54823;SDS011;40724;53.196;5.980;2022-09-01T04:24:07;2.65;;;1.80;;
54823;SDS011;40724;53.196;5.980;2022-09-01T04:26:34;3.00;;;2.13;;
54823;SDS011;40724;53.196;5.980;2022-09-01T04:29:02;3.65;;;1.92;;
54823;SDS011;40724;53.196;5.980;2022-09-01T04:31:28;3.33;;;1.80;;
54823;SDS011;40724;53.196;5.980;2022-09-01T04:33:55;5.78;;;2.90;;
54823;SDS011;40724;53.196;5.980;2022-09-01T04:36:23;3.75;;;1.90;;
54823;SDS011;40724;53.196;5.980;2022-09-01T04:38:51;3.05;;;1.90;;
54823;SDS011;40724;53.196;5.980;2022-09-01T04:41:22;4.63;;;1.83;;
54823;SDS011;40724;53.196;5.980;2022-09-01T04:43:50;3.85;;;1.50;;
54823;SDS011;40724;53.196;5.980;2022-09-01T04:46:19;5.40;;;2.08;;
54823;SDS011;40724;53.196;5.980;2022-09-01T04:48:46;4.10;;;2.35;;
54823;SDS011;40724;53.196;5.980;2022-09-01T04:51:12;3.13;;;2.30;;
54823;SDS011;40724;53.196;5.980;2022-09-01T04:53:39;2.50;;;1.80;;
54823;SDS011;40724;53.196;5.980;2022-09-01T04:56:07;2.45;;;1.70;;
54823;SDS011;40724;53.196;5.980;2022-09-01T04:58:34;2.65;;;2.00;;
54823;SDS011;40724;53.196;5.980;2022-09-01T05:01:01;2.70;;;2.17;;
54823;SDS011;40724;53.196;5.980;2022-09-01T05:03:32;2.55;;;1.88;;
54823;SDS011;40724;53.196;5.980;2022-09-01T05:05:58;2.92;;;1.73;;
54823;SDS011;40724;53.196;5.980;2022-09-01T05:08:26;3.05;;;1.88;;
54823;SDS011;40724;53.196;5.980;2022-09-01T05:10:53;2.97;;;2.08;;
54823;SDS011;40724;53.196;5.980;2022-09-01T05:13:20;2.50;;;1.70;;
54823;SDS011;40724;53.196;5.980;2022-09-01T05:15:57;3.72;;;2.08;;
54823;SDS011;40724;53.196;5.980;2022-09-01T05:18:26;2.45;;;1.83;;
54823;SDS011;40724;53.196;5.980;2022-09-01T05:20:52;3.00;;;1.98;;
54823;SDS011;40724;53.196;5.980;2022-09-01T05:23:20;2.72;;;1.80;;
54823;SDS011;40724;53.196;5.980;2022-09-01T05:25:49;3.20;;;1.77;;
54823;SDS011;40724;53.196;5.980;2022-09-01T05:28:18;2.08;;;1.80;;
54823;SDS011;40724;53.196;5.980;2022-09-01T05:30:45;2.13;;;1.50;;
54823;SDS011;40724;53.196;5.980;2022-09-01T05:33:12;4.53;;;1.77;;
54823;SDS011;40724;53.196;5.980;2022-09-01T05:35:54;3.60;;;1.90;;
54823;SDS011;40724;53.196;5.980;2022-09-01T05:38:20;2.97;;;1.95;;
54823;SDS011;40724;53.196;5.980;2022-09-01T05:40:55;4.03;;;1.90;;
54823;SDS011;40724;53.196;5.980;2022-09-01T05:43:22;2.95;;;1.95;;
54823;SDS011;40724;53.196;5.980;2022-09-01T05:45:51;2.22;;;1.67;;
54823;SDS011;40724;53.196;5.980;2022-09-01T05:48:18;3.15;;;1.98;;
54823;SDS011;40724;53.196;5.980;2022-09-01T05:50:45;3.33;;;1.80;;
54823;SDS011;40724;53.196;5.980;2022-09-01T05:53:14;5.00;;;2.05;;
54823;SDS011;40724;53.196;5.980;2022-09-01T05:55:44;3.15;;;2.05;;
54823;SDS011;40724;53.196;5.980;2022-09-01T05:58:11;2.72;;;2.10;;
54823;SDS011;40724;53.196;5.980;2022-09-01T06:00:42;3.67;;;2.00;;
54823;SDS011;40724;53.196;5.980;2022-09-01T06:03:12;2.90;;;1.90;;
54823;SDS011;40724;53.196;5.980;2022-09-01T06:05:38;3.85;;;2.35;;
54823;SDS011;40724;53.196;5.980;2022-09-01T06:08:06;2.60;;;1.92;;
54823;SDS011;40724;53.196;5.980;2022-09-01T06:10:35;3.03;;;1.95;;
54823;SDS011;40724;53.196;5.980;2022-09-01T06:13:04;3.80;;;2.33;;
54823;SDS011;40724;53.196;5.980;2022-09-01T06:15:31;3.30;;;2.38;;
54823;SDS011;40724;53.196;5.980;2022-09-01T06:17:57;3.92;;;2.55;;
54823;SDS011;40724;53.196;5.980;2022-09-01T06:20:24;3.35;;;2.53;;
54823;SDS011;40724;53.196;5.980;2022-09-01T06:22:51;3.50;;;2.53;;
54823;SDS011;40724;53.196;5.980;2022-09-01T06:25:18;3.55;;;2.13;;
54823;SDS011;40724;53.196;5.980;2022-09-01T06:27:45;2.70;;;1.85;;
54823;SDS011;40724;53.196;5.980;2022-09-01T06:30:13;2.88;;;1.83;;
54823;SDS011;40724;53.196;5.980;2022-09-01T06:32:45;2.42;;;2.00;;
54823;SDS011;40724;53.196;5.980;2022-09-01T06:35:14;5.00;;;2.30;;
54823;SDS011;40724;53.196;5.980;2022-09-01T06:37:41;5.07;;;2.42;;
54823;SDS011;40724;53.196;5.980;2022-09-01T06:40:09;3.45;;;2.13;;
54823;SDS011;40724;53.196;5.980;2022-09-01T06:42:42;4.55;;;2.53;;
54823;SDS011;40724;53.196;5.980;2022-09-01T06:45:09;3.67;;;2.05;;
54823;SDS011;40724;53.196;5.980;2022-09-01T06:47:35;3.72;;;2.20;;
54823;SDS011;40724;53.196;5.980;2022-09-01T06:50:02;2.60;;;1.60;;
54823;SDS011;40724;53.196;5.980;2022-09-01T06:52:32;3.58;;;2.10;;
54823;SDS011;40724;53.196;5.980;2022-09-01T06:54:58;3.33;;;2.08;;
54823;SDS011;40724;53.196;5.980;2022-09-01T06:57:25;3.17;;;1.63;;
54823;SDS011;40724;53.196;5.980;2022-09-01T06:59:52;3.03;;;1.95;;
54823;SDS011;40724;53.196;5.980;2022-09-01T07:02:23;3.70;;;2.30;;
54823;SDS011;40724;53.196;5.980;2022-09-01T07:04:50;2.70;;;2.03;;
54823;SDS011;40724;53.196;5.980;2022-09-01T07:07:21;3.58;;;2.33;;
54823;SDS011;40724;53.196;5.980;2022-09-01T07:09:47;3.53;;;2.20;;
54823;SDS011;40724;53.196;5.980;2022-09-01T07:12:14;7.28;;;2.47;;
54823;SDS011;40724;53.196;5.980;2022-09-01T07:14:43;3.50;;;1.98;;
54823;SDS011;40724;53.196;5.980;2022-09-01T07:17:22;3.17;;;2.25;;
54823;SDS011;40724;53.196;5.980;2022-09-01T07:19:49;4.20;;;2.30;;
54823;SDS011;40724;53.196;5.980;2022-09-01T07:22:15;7.97;;;2.45;;
54823;SDS011;40724;53.196;5.980;2022-09-01T07:24:42;3.65;;;2.28;;
54823;SDS011;40724;53.196;5.980;2022-09-01T07:27:16;3.40;;;2.63;;
54823;SDS011;40724;53.196;5.980;2022-09-01T07:29:45;3.85;;;1.98;;
54823;SDS011;40724;53.196;5.980;2022-09-01T07:34:47;4.40;;;2.17;;
54823;SDS011;40724;53.196;5.980;2022-09-01T07:37:13;3.22;;;2.15;;
54823;SDS011;40724;53.196;5.980;2022-09-01T07:39:45;5.20;;;2.70;;
54823;SDS011;40724;53.196;5.980;2022-09-01T07:42:11;4.13;;;2.70;;
54823;SDS011;40724;53.196;5.980;2022-09-01T07:44:41;3.42;;;2.33;;
54823;SDS011;40724;53.196;5.980;2022-09-01T07:47:11;4.45;;;2.85;;
54823;SDS011;40724;53.196;5.980;2022-09-01T07:49:39;6.88;;;2.70;;
54823;SDS011;40724;53.196;5.980;2022-09-01T07:52:06;3.78;;;2.58;;
54823;SDS011;40724;53.196;5.980;2022-09-01T07:54:32;7.32;;;2.83;;
54823;SDS011;40724;53.196;5.980;2022-09-01T07:57:02;3.35;;;2.30;;
54823;SDS011;40724;53.196;5.980;2022-09-01T07:59:29;5.68;;;2.55;;
54823;SDS011;40724;53.196;5.980;2022-09-01T08:01:57;3.42;;;2.10;;
54823;SDS011;40724;53.196;5.980;2022-09-01T08:04:25;3.08;;;2.47;;
54823;SDS011;40724;53.196;5.980;2022-09-01T08:06:51;2.80;;;2.10;;
54823;SDS011;40724;53.196;5.980;2022-09-01T08:09:18;5.05;;;2.15;;
54823;SDS011;40724;53.196;5.980;2022-09-01T08:11:45;4.72;;;2.42;;
54823;SDS011;40724;53.196;5.980;2022-09-01T08:14:11;4.53;;;2.22;;
54823;SDS011;40724;53.196;5.980;2022-09-01T08:16:37;5.43;;;2.38;;
54823;SDS011;40724;53.196;5.980;2022-09-01T08:19:06;2.20;;;2.00;;
54823;SDS011;40724;53.196;5.980;2022-09-01T08:21:32;3.85;;;2.15;;
54823;SDS011;40724;53.196;5.980;2022-09-01T08:24:00;3.92;;;2.17;;
54823;SDS011;40724;53.196;5.980;2022-09-01T08:26:26;2.83;;;1.73;;
54823;SDS011;40724;53.196;5.980;2022-09-01T08:28:53;3.47;;;2.10;;
54823;SDS011;40724;53.196;5.980;2022-09-01T08:31:21;2.58;;;1.90;;
54823;SDS011;40724;53.196;5.980;2022-09-01T08:33:50;4.10;;;2.25;;
54823;SDS011;40724;53.196;5.980;2022-09-01T08:36:17;3.22;;;2.28;;
54823;SDS011;40724;53.196;5.980;2022-09-01T08:38:43;3.50;;;2.25;;
54823;SDS011;40724;53.196;5.980;2022-09-01T08:41:23;4.63;;;2.60;;
54823;SDS011;40724;53.196;5.980;2022-09-01T08:44:04;3.05;;;1.92;;
54823;SDS011;40724;53.196;5.980;2022-09-01T08:46:36;5.10;;;2.30;;
54823;SDS011;40724;53.196;5.980;2022-09-01T08:49:14;4.63;;;2.05;;
54823;SDS011;40724;53.196;5.980;2022-09-01T08:51:51;2.80;;;2.00;;
54823;SDS011;40724;53.196;5.980;2022-09-01T08:59:17;2.15;;;1.65;;
54823;SDS011;40724;53.196;5.980;2022-09-01T09:02:29;3.67;;;2.40;;
54823;SDS011;40724;53.196;5.980;2022-09-01T09:15:21;2.90;;;1.98;;
54823;SDS011;40724;53.196;5.980;2022-09-01T09:17:50;2.15;;;1.50;;
54823;SDS011;40724;53.196;5.980;2022-09-01T09:20:23;3.25;;;1.95;;
54823;SDS011;40724;53.196;5.980;2022-09-01T09:22:52;4.07;;;2.10;;
54823;SDS011;40724;53.196;5.980;2022-09-01T09:25:26;4.45;;;2.28;;
54823;SDS011;40724;53.196;5.980;2022-09-01T09:27:58;2.67;;;1.70;;
54823;SDS011;40724;53.196;5.980;2022-09-01T09:30:25;4.35;;;2.55;;
54823;SDS011;40724;53.196;5.980;2022-09-01T09:32:53;4.75;;;1.67;;
54823;SDS011;40724;53.196;5.980;2022-09-01T09:35:27;1.75;;;1.27;;
54823;SDS011;40724;53.196;5.980;2022-09-01T09:43:29;2.85;;;1.70;;
54823;SDS011;40724;53.196;5.980;2022-09-01T09:46:42;3.08;;;1.77;;
54823;SDS011;40724;53.196;5.980;2022-09-01T09:48:42;8.40;;;1.73;;
54823;SDS011;40724;53.196;5.980;2022-09-01T09:51:15;3.40;;;1.55;;
54823;SDS011;40724;53.196;5.980;2022-09-01T09:53:42;2.30;;;1.67;;
54823;SDS011;40724;53.196;5.980;2022-09-01T09:56:15;3.55;;;1.50;;
54823;SDS011;40724;53.196;5.980;2022-09-01T09:58:42;6.45;;;1.90;;
54823;SDS011;40724;53.196;5.980;2022-09-01T10:01:29;2.53;;;1.60;;
54823;SDS011;40724;53.196;5.980;2022-09-01T10:03:57;2.63;;;1.50;;
54823;SDS011;40724;53.196;5.980;2022-09-01T10:06:34;2.25;;;1.70;;
54823;SDS011;40724;53.196;5.980;2022-09-01T10:09:47;3.35;;;1.42;;
54823;SDS011;40724;53.196;5.980;2022-09-01T10:11:51;2.35;;;1.98;;
54823;SDS011;40724;53.196;5.980;2022-09-01T10:14:28;3.05;;;1.98;;
54823;SDS011;40724;53.196;5.980;2022-09-01T10:17:03;2.88;;;1.83;;
54823;SDS011;40724;53.196;5.980;2022-09-01T10:19:31;4.88;;;1.75;;
54823;SDS011;40724;53.196;5.980;2022-09-01T10:21:58;4.05;;;1.70;;
54823;SDS011;40724;53.196;5.980;2022-09-01T10:24:28;7.70;;;1.70;;
54823;SDS011;40724;53.196;5.980;2022-09-01T10:26:56;1.98;;;1.45;;
54823;SDS011;40724;53.196;5.980;2022-09-01T10:29:31;2.88;;;1.60;;
54823;SDS011;40724;53.196;5.980;2022-09-01T10:32:03;2.97;;;1.48;;
54823;SDS011;40724;53.196;5.980;2022-09-01T10:34:34;2.67;;;1.30;;
54823;SDS011;40724;53.196;5.980;2022-09-01T10:37:04;3.50;;;1.70;;
54823;SDS011;40724;53.196;5.980;2022-09-01T10:39:30;2.55;;;1.30;;
54823;SDS011;40724;53.196;5.980;2022-09-01T10:42:00;2.38;;;1.38;;
54823;SDS011;40724;53.196;5.980;2022-09-01T10:44:35;2.10;;;1.02;;
54823;SDS011;40724;53.196;5.980;2022-09-01T10:51:57;3.08;;;1.15;;
54823;SDS011;40724;53.196;5.980;2022-09-01T10:54:57;3.85;;;1.33;;
54823;SDS011;40724;53.196;5.980;2022-09-01T10:59:51;1.25;;;0.88;;
54823;SDS011;40724;53.196;5.980;2022-09-01T11:02:19;1.40;;;1.02;;
54823;SDS011;40724;53.196;5.980;2022-09-01T11:09:42;2.33;;;1.15;;
54823;SDS011;40724;53.196;5.980;2022-09-01T11:20:45;2.97;;;0.77;;
54823;SDS011;40724;53.196;5.980;2022-09-01T11:29:02;2.25;;;0.93;;
54823;SDS011;40724;53.196;5.980;2022-09-01T11:34:27;2.08;;;0.95;;
54823;SDS011;40724;53.196;5.980;2022-09-01T11:36:57;3.47;;;1.10;;
54823;SDS011;40724;53.196;5.980;2022-09-01T11:39:31;3.15;;;1.15;;
54823;SDS011;40724;53.196;5.980;2022-09-01T11:44:35;2.20;;;0.80;;
54823;SDS011;40724;53.196;5.980;2022-09-01T11:47:06;1.27;;;0.80;;
54823;SDS011;40724;53.196;5.980;2022-09-01T11:49:36;1.48;;;0.90;;
54823;SDS011;40724;53.196;5.980;2022-09-01T11:52:06;1.05;;;0.88;;
54823;SDS011;40724;53.196;5.980;2022-09-01T11:54:39;4.13;;;0.90;;
54823;SDS011;40724;53.196;5.980;2022-09-01T12:00:11;3.30;;;0.80;;
54823;SDS011;40724;53.196;5.980;2022-09-01T12:02:45;3.22;;;1.33;;
54823;SDS011;40724;53.196;5.980;2022-09-01T12:05:25;1.52;;;0.80;;
54823;SDS011;40724;53.196;5.980;2022-09-01T12:07:52;1.67;;;0.90;;
54823;SDS011;40724;53.196;5.980;2022-09-01T12:10:20;2.67;;;0.75;;
54823;SDS011;40724;53.196;5.980;2022-09-01T12:12:47;2.40;;;0.90;;
54823;SDS011;40724;53.196;5.980;2022-09-01T12:15:19;1.50;;;1.00;;
54823;SDS011;40724;53.196;5.980;2022-09-01T12:18:08;4.00;;;1.00;;
54823;SDS011;40724;53.196;5.980;2022-09-01T12:20:35;2.25;;;1.00;;
54823;SDS011;40724;53.196;5.980;2022-09-01T12:25:44;2.80;;;0.90;;
54823;SDS011;40724;53.196;5.980;2022-09-01T12:34:24;1.05;;;0.70;;
54823;SDS011;40724;53.196;5.980;2022-09-01T12:39:57;1.58;;;0.77;;
54823;SDS011;40724;53.196;5.980;2022-09-01T12:42:25;1.83;;;0.90;;
54823;SDS011;40724;53.196;5.980;2022-09-01T12:50:04;2.75;;;1.00;;
54823;SDS011;40724;53.196;5.980;2022-09-01T12:52:31;1.92;;;1.00;;
54823;SDS011;40724;53.196;5.980;2022-09-01T12:57:28;4.88;;;1.38;;
54823;SDS011;40724;53.196;5.980;2022-09-01T13:05:18;1.95;;;0.70;;
54823;SDS011;40724;53.196;5.980;2022-09-01T13:07:44;2.60;;;1.08;;
54823;SDS011;40724;53.196;5.980;2022-09-01T13:10:10;1.35;;;0.73;;
54823;SDS011;40724;53.196;5.980;2022-09-01T13:12:43;3.60;;;1.02;;
54823;SDS011;40724;53.196;5.980;2022-09-01T13:15:10;3.00;;;0.80;;
54823;SDS011;40724;53.196;5.980;2022-09-01T13:17:37;1.48;;;0.80;;
54823;SDS011;40724;53.196;5.980;2022-09-01T13:20:04;1.30;;;0.77;;
54823;SDS011;40724;53.196;5.980;2022-09-01T13:22:30;0.95;;;0.70;;
54823;SDS011;40724;53.196;5.980;2022-09-01T13:24:56;3.55;;;1.15;;
54823;SDS011;40724;53.196;5.980;2022-09-01T13:27:23;1.02;;;0.70;;
54823;SDS011;40724;53.196;5.980;2022-09-01T13:29:49;4.68;;;1.02;;
54823;SDS011;40724;53.196;5.980;2022-09-01T13:32:15;2.42;;;1.10;;
54823;SDS011;40724;53.196;5.980;2022-09-01T13:34:42;3.60;;;1.70;;
54823;SDS011;40724;53.196;5.980;2022-09-01T13:37:09;2.33;;;0.88;;
54823;SDS011;40724;53.196;5.980;2022-09-01T13:39:35;3.00;;;0.80;;
54823;SDS011;40724;53.196;5.980;2022-09-01T13:42:01;2.58;;;0.77;;
54823;SDS011;40724;53.196;5.980;2022-09-01T13:44:27;3.47;;;1.20;;
54823;SDS011;40724;53.196;5.980;2022-09-01T13:46:54;0.88;;;0.75;;
54823;SDS011;40724;53.196;5.980;2022-09-01T13:49:20;3.50;;;0.98;;
54823;SDS011;40724;53.196;5.980;2022-09-01T13:51:52;1.63;;;0.88;;
54823;SDS011;40724;53.196;5.980;2022-09-01T13:54:19;1.40;;;0.70;;
54823;SDS011;40724;53.196;5.980;2022-09-01T13:56:45;2.22;;;0.75;;
54823;SDS011;40724;53.196;5.980;2022-09-01T13:59:11;3.90;;;0.80;;
54823;SDS011;40724;53.196;5.980;2022-09-01T14:01:38;3.22;;;0.95;;
54823;SDS011;40724;53.196;5.980;2022-09-01T14:04:07;0.82;;;0.80;;
54823;SDS011;40724;53.196;5.980;2022-09-01T14:06:41;0.75;;;0.73;;
54823;SDS011;40724;53.196;5.980;2022-09-01T14:09:12;3.70;;;1.30;;
54823;SDS011;40724;53.196;5.980;2022-09-01T14:11:39;1.85;;;1.02;;
54823;SDS011;40724;53.196;5.980;2022-09-01T14:14:05;2.85;;;1.30;;
54823;SDS011;40724;53.196;5.980;2022-09-01T14:16:32;2.92;;;1.25;;
54823;SDS011;40724;53.196;5.980;2022-09-01T14:18:58;2.00;;;0.80;;
54823;SDS011;40724;53.196;5.980;2022-09-01T14:21:24;2.15;;;0.88;;
54823;SDS011;40724;53.196;5.980;2022-09-01T14:23:51;1.90;;;0.90;;
54823;SDS011;40724;53.196;5.980;2022-09-01T14:26:17;2.78;;;0.90;;
54823;SDS011;40724;53.196;5.980;2022-09-01T14:28:44;2.05;;;0.90;;
54823;SDS011;40724;53.196;5.980;2022-09-01T14:31:16;2.10;;;1.00;;
54823;SDS011;40724;53.196;5.980;2022-09-01T14:33:43;6.20;;;0.98;;
54823;SDS011;40724;53.196;5.980;2022-09-01T14:36:15;3.97;;;0.85;;
54823;SDS011;40724;53.196;5.980;2022-09-01T14:38:42;0.98;;;0.80;;
54823;SDS011;40724;53.196;5.980;2022-09-01T14:41:11;3.00;;;0.90;;
54823;SDS011;40724;53.196;5.980;2022-09-01T14:43:37;2.50;;;0.90;;
54823;SDS011;40724;53.196;5.980;2022-09-01T14:46:07;2.35;;;1.10;;
54823;SDS011;40724;53.196;5.980;2022-09-01T14:48:35;1.60;;;0.93;;
54823;SDS011;40724;53.196;5.980;2022-09-01T14:51:02;2.95;;;1.48;;
54823;SDS011;40724;53.196;5.980;2022-09-01T14:53:29;4.85;;;1.10;;
54823;SDS011;40724;53.196;5.980;2022-09-01T14:55:56;2.03;;;0.60;;
54823;SDS011;40724;53.196;5.980;2022-09-01T14:58:24;0.70;;;0.70;;
54823;SDS011;40724;53.196;5.980;2022-09-01T15:00:50;1.80;;;0.88;;
54823;SDS011;40724;53.196;5.980;2022-09-01T15:03:17;8.80;;;1.58;;
54823;SDS011;40724;53.196;5.980;2022-09-01T15:05:43;2.28;;;0.70;;
54823;SDS011;40724;53.196;5.980;2022-09-01T15:08:09;2.50;;;0.90;;
54823;SDS011;40724;53.196;5.980;2022-09-01T15:10:35;6.68;;;1.25;;
54823;SDS011;40724;53.196;5.980;2022-09-01T15:13:01;5.20;;;1.63;;
54823;SDS011;40724;53.196;5.980;2022-09-01T15:15:28;6.07;;;1.27;;
54823;SDS011;40724;53.196;5.980;2022-09-01T15:17:55;4.47;;;1.08;;
54823;SDS011;40724;53.196;5.980;2022-09-01T15:20:21;3.35;;;1.02;;
54823;SDS011;40724;53.196;5.980;2022-09-01T15:23:06;6.18;;;1.10;;
54823;SDS011;40724;53.196;5.980;2022-09-01T15:25:32;2.05;;;0.80;;
54823;SDS011;40724;53.196;5.980;2022-09-01T15:27:59;3.25;;;1.25;;
54823;SDS011;40724;53.196;5.980;2022-09-01T15:30:25;3.78;;;1.10;;
54823;SDS011;40724;53.196;5.980;2022-09-01T15:32:57;1.85;;;0.63;;
54823;SDS011;40724;53.196;5.980;2022-09-01T15:35:23;1.75;;;0.77;;
54823;SDS011;40724;53.196;5.980;2022-09-01T15:37:50;1.88;;;1.02;;
54823;SDS011;40724;53.196;5.980;2022-09-01T15:40:16;6.15;;;1.15;;
54823;SDS011;40724;53.196;5.980;2022-09-01T15:42:42;3.38;;;1.00;;
54823;SDS011;40724;53.196;5.980;2022-09-01T15:45:11;0.85;;;0.60;;
54823;SDS011;40724;53.196;5.980;2022-09-01T15:47:38;3.20;;;0.90;;
54823;SDS011;40724;53.196;5.980;2022-09-01T15:50:05;1.73;;;1.00;;
54823;SDS011;40724;53.196;5.980;2022-09-01T15:52:31;2.88;;;0.90;;
54823;SDS011;40724;53.196;5.980;2022-09-01T15:54:58;1.83;;;0.60;;
54823;SDS011;40724;53.196;5.980;2022-09-01T15:57:25;1.65;;;0.80;;
54823;SDS011;40724;53.196;5.980;2022-09-01T15:59:51;3.25;;;0.90;;
54823;SDS011;40724;53.196;5.980;2022-09-01T16:02:17;1.55;;;0.90;;
54823;SDS011;40724;53.196;5.980;2022-09-01T16:04:47;2.65;;;0.77;;
54823;SDS011;40724;53.196;5.980;2022-09-01T16:07:13;4.72;;;0.90;;
54823;SDS011;40724;53.196;5.980;2022-09-01T16:09:39;1.92;;;0.80;;
54823;SDS011;40724;53.196;5.980;2022-09-01T16:12:06;5.20;;;1.10;;
54823;SDS011;40724;53.196;5.980;2022-09-01T16:14:32;2.95;;;1.15;;
54823;SDS011;40724;53.196;5.980;2022-09-01T16:24:17;2.20;;;0.77;;
54823;SDS011;40724;53.196;5.980;2022-09-01T16:26:45;4.90;;;1.02;;
54823;SDS011;40724;53.196;5.980;2022-09-01T16:31:45;3.67;;;0.93;;
54823;SDS011;40724;53.196;5.980;2022-09-01T16:34:14;1.67;;;0.88;;